Nearby METAR Reports

 

KRDU - Raleigh-Durham, NC, USA
Distance from station: NE 9mi, 14km
Updated: Wed, 28-Feb-2024 5:51pm EST
Overcast
Overcast
 Wind from SW
Wind: SW 21 mph , 33 km/h, Gust: 32 mph , 52 km/h
Temperature: 72°F , 22°C
Dew Point: 55°F , 13°C
Humidity: 57%
Barometer: 1008.5 hPa
Clouds: Overcast
Visibility: 10 miles , 16 km
Cloud details: Few Clouds 4000 ft
Mostly cloudy 18000 ft
Overcast 25000 ft
2024/02/28 22:51 KRDU 282251Z 22018G28KT 10SM FEW040 BKN180 OVC250 22/13 A2978 RMK AO2 PK WND 22029/2159 SLP082 T02170128 $
KLHZ - Louisburg, NC, USA
Distance from station: N 9mi, 14km
Updated: Wed, 28-Feb-2024 6:55pm EST
Light rain, Partly cloudy
Light rain, Partly cloudy
 Wind from SSW
Wind: SSW 17 mph , 28 km/h, Gust: 24 mph , 39 km/h
Temperature: 70°F , 21°C
Dew Point: 55°F , 13°C
Humidity: 60%
Barometer: 1009.1 hPa
Summary: Light rain
Clouds: Partly cloudy
Visibility: 10 miles , 16 km
Cloud details: Partly cloudy 5000 ft
Partly cloudy 6500 ft
2024/02/28 23:55 KLHZ 282355Z AUTO 20015G21KT 10SM -RA SCT050 SCT065 21/13 A2980 RMK AO2
 
KJNX - Smithfield, NC, USA
Distance from station: NNW 14mi, 23km
Updated: Wed, 28-Feb-2024 6:50pm EST
Overcast
Overcast
 Wind from SSW
Wind: SSW 17 mph , 28 km/h, Gust: 24 mph , 39 km/h
Temperature: 72°F , 22°C
Dew Point: 55°F , 13°C
Humidity: 57%
Barometer: 1009.8 hPa
Clouds: Overcast
Visibility: 10 miles , 16 km
Cloud details: Mostly cloudy 7000 ft
Overcast 8000 ft
2024/02/28 23:50 KJNX 282350Z AUTO 21015G21KT 10SM BKN070 OVC080 22/13 A2982 RMK AO2
KHRJ - Erwin, NC, USA
Distance from station: ENE 12mi, 19km
Updated: Wed, 28-Feb-2024 6:50pm EST
Light rain, Overcast
Light rain, Overcast
 Wind from SSW
Wind: SSW 16 mph , 26 km/h, Gust: 23 mph , 37 km/h
Temperature: 72°F , 22°C
Dew Point: 55°F , 13°C
Humidity: 57%
Barometer: 1010.8 hPa
Summary: Light rain
Clouds: Overcast
Visibility: 10 miles , 16 km
Cloud details: Partly cloudy 5000 ft
Mostly cloudy 6500 ft
Overcast 11000 ft
2024/02/28 23:50 KHRJ 282350Z AUTO 21014G20KT 10SM -RA SCT050 BKN065 OVC110 22/13 A2985 RMK AO2 T02220135 10231 20195 402310150
 
KTTA - Sanford, NC, USA
Distance from station: NNW 31mi, 50km
Updated: Wed, 28-Feb-2024 6:50pm EST
Light rain, Overcast
Light rain, Overcast
 Wind from SSW
Wind: SSW 12 mph , 19 km/h, Gust: 22 mph , 35 km/h
Temperature: 70°F , 21°C
Dew Point: 57°F , 14°C
Humidity: 64%
Barometer: 1010.2 hPa
Summary: Light rain
Clouds: Overcast
Visibility: 10 miles , 16 km
Cloud details: Partly cloudy 4200 ft
Partly cloudy 4800 ft
Overcast 10000 ft
2024/02/28 23:50 KTTA 282350Z AUTO 21010G19KT 10SM -RA SCT042 SCT048 OVC100 21/14 A2983 RMK AO2 T02070137 10212 20182
KSCR - Siler City, NC, USA
Distance from station: NW 21mi, 34km
Updated: Wed, 28-Feb-2024 6:45pm EST
Heavy rain, Overcast
Heavy rain, Overcast
 Wind from WNW
Wind: WNW 10 mph , 17 km/h, Gust: 22 mph , 35 km/h
Temperature: 64°F , 18°C
Dew Point: 61°F , 16°C
Humidity: 88%
Barometer: 1012.2 hPa
Summary: Heavy rain
Clouds: Overcast
Visibility: 5 miles , 8 km
Cloud details: Partly cloudy 1800 ft
Mostly cloudy 3600 ft
Overcast 6500 ft
2024/02/28 23:45 KSCR 282345Z AUTO 29009G19KT 5SM +RA SCT018 BKN036 OVC065 18/16 A2989 RMK AO2 T01780160